Time;durP1;ratioP1;P1;durP2;ratioP2;P2;SDS_P1;SDS_P2;PMS_P1;PMS_P2;Temp;Humidity;BMP_temperature;BMP_pressure;BME280_temperature;BME280_humidity;BME280_pressure;Samples;Min_cycle;Max_cycle;Signal;HPM_P1;HPM_P2
2021/12/27 00:02:25;;;;;;;17.27;9.68;;;5.90;99.90;;;;;;5095755;28;20220;-61
2021/12/27 00:04:50;;;;;;;19.45;10.65;;;5.90;99.90;;;;;;5096131;28;20175;-62
2021/12/27 00:07:16;;;;;;;22.13;12.13;;;5.90;99.90;;;;;;5095807;28;20646;-62
2021/12/27 00:09:42;;;;;;;21.17;10.95;;;5.90;99.90;;;;;;5095352;28;20642;-61
2021/12/27 00:12:08;;;;;;;22.38;10.93;;;5.90;99.90;;;;;;5095696;28;20195;-62
2021/12/27 00:14:33;;;;;;;21.90;11.55;;;5.90;99.90;;;;;;5095489;28;20194;-62
2021/12/27 00:16:59;;;;;;;21.25;10.88;;;6.00;99.90;;;;;;5095660;28;20176;-62
2021/12/27 00:19:25;;;;;;;19.20;10.57;;;5.90;99.90;;;;;;5095741;28;20203;-62
2021/12/27 00:21:50;;;;;;;19.27;10.05;;;5.90;99.90;;;;;;5093763;28;20304;-62
2021/12/27 00:24:16;;;;;;;18.98;10.07;;;5.90;99.90;;;;;;5094888;28;20408;-62
2021/12/27 00:26:41;;;;;;;18.55;9.82;;;5.90;99.90;;;;;;5095133;28;20184;-64
2021/12/27 00:29:07;;;;;;;22.13;11.52;;;5.90;99.90;;;;;;5095191;28;20177;-62
2021/12/27 00:31:33;;;;;;;16.88;10.43;;;6.00;99.90;;;;;;5095393;28;20192;-62
2021/12/27 00:33:58;;;;;;;17.38;9.65;;;5.90;99.90;;;;;;5095181;28;20168;-62
2021/12/27 00:36:24;;;;;;;19.20;11.25;;;6.00;99.90;;;;;;5095069;28;20180;-62
2021/12/27 00:38:49;;;;;;;23.02;14.05;;;6.00;99.90;;;;;;5095217;28;20203;-62
2021/12/27 00:41:15;;;;;;;22.15;13.27;;;6.00;99.90;;;;;;5094738;28;20555;-62
2021/12/27 00:43:40;;;;;;;21.40;12.23;;;6.00;99.90;;;;;;5094659;28;20187;-62
2021/12/27 00:46:06;;;;;;;16.02;9.93;;;6.00;99.90;;;;;;5095197;28;20176;-62
2021/12/27 00:48:31;;;;;;;17.35;10.57;;;6.00;99.90;;;;;;5094745;28;20183;-62
2021/12/27 00:50:57;;;;;;;18.10;10.32;;;6.00;99.90;;;;;;5093404;28;20180;-61
2021/12/27 00:53:22;;;;;;;17.10;9.98;;;6.00;99.90;;;;;;5094565;28;20184;-59
2021/12/27 00:55:48;;;;;;;17.70;10.30;;;6.00;99.90;;;;;;5094528;28;20221;-59
2021/12/27 00:58:14;;;;;;;17.20;9.95;;;5.90;99.90;;;;;;5093466;28;20312;-59
2021/12/27 01:00:39;;;;;;;14.88;9.68;;;6.00;99.90;;;;;;5094815;28;20200;-59
2021/12/27 01:03:05;;;;;;;16.70;9.77;;;5.90;99.90;;;;;;5095051;28;20257;-59
2021/12/27 01:05:31;;;;;;;16.05;9.93;;;5.90;99.90;;;;;;5094232;28;20646;-59
2021/12/27 01:07:56;;;;;;;15.13;8.48;;;5.90;99.90;;;;;;5093293;28;20556;-59
2021/12/27 01:10:46;;;;;;;14.63;9.50;;;5.90;99.90;;;;;;5094363;28;20180;-59
2021/12/27 01:13:23;;;;;;;14.10;9.05;;;5.90;99.90;;;;;;5093974;28;20275;-59
2021/12/27 01:16:10;;;;;;;16.88;9.43;;;5.90;99.90;;;;;;5082959;28;20528;-59
2021/12/27 01:18:48;;;;;;;15.52;9.10;;;5.90;99.90;;;;;;5094187;28;20524;-59
2021/12/27 01:21:19;;;;;;;16.65;9.68;;;5.90;99.90;;;;;;5094417;28;20674;-59
2021/12/27 01:23:45;;;;;;;16.70;8.82;;;5.90;99.90;;;;;;5093897;28;20207;-59
2021/12/27 01:26:11;;;;;;;21.65;10.25;;;5.90;99.90;;;;;;5092733;28;20180;-59
2021/12/27 01:28:38;;;;;;;16.98;9.75;;;5.80;99.90;;;;;;5092581;28;20532;-59
2021/12/27 01:31:04;;;;;;;13.80;8.88;;;5.80;99.90;;;;;;5094096;28;20772;-59
2021/12/27 01:33:31;;;;;;;15.45;9.30;;;5.80;99.90;;;;;;5093572;28;20786;-59
2021/12/27 01:35:57;;;;;;;17.75;9.43;;;5.80;99.90;;;;;;5094177;28;20198;-59
2021/12/27 01:38:22;;;;;;;13.85;9.02;;;5.80;99.90;;;;;;5093826;28;20180;-59
2021/12/27 01:40:52;;;;;;;16.60;9.50;;;5.80;99.90;;;;;;5093775;28;20675;-59
2021/12/27 01:43:22;;;;;;;15.00;9.20;;;5.80;99.90;;;;;;5093523;28;20207;-60
2021/12/27 01:45:55;;;;;;;20.58;9.90;;;5.80;99.90;;;;;;5092459;28;20198;-60
2021/12/27 01:48:24;;;;;;;18.50;11.18;;;5.80;99.90;;;;;;5093369;28;20209;-60
2021/12/27 01:50:52;;;;;;;19.63;10.38;;;5.80;99.90;;;;;;5093580;28;20184;-61
2021/12/27 01:53:18;;;;;;;18.88;10.48;;;5.80;99.90;;;;;;5093641;28;20632;-61
2021/12/27 01:55:45;;;;;;;17.25;10.63;;;5.90;99.90;;;;;;5093920;28;20211;-61
2021/12/27 01:58:11;;;;;;;24.02;12.98;;;5.80;99.90;;;;;;5092961;28;20227;-61
2021/12/27 02:00:40;;;;;;;21.08;11.95;;;5.80;99.90;;;;;;5092961;28;20215;-61
2021/12/27 02:03:06;;;;;;;21.80;11.23;;;5.80;99.90;;;;;;5093581;28;20180;-60
2021/12/27 02:05:32;;;;;;;17.45;10.20;;;5.80;99.90;;;;;;5093493;28;20527;-61
2021/12/27 02:07:58;;;;;;;17.55;10.32;;;5.80;99.90;;;;;;5093394;28;20191;-61
2021/12/27 02:10:23;;;;;;;15.45;9.10;;;5.80;99.90;;;;;;5093583;28;20188;-61
2021/12/27 02:12:50;;;;;;;15.65;9.18;;;5.80;99.90;;;;;;5092929;28;20263;-61
2021/12/27 02:15:16;;;;;;;17.52;9.98;;;5.80;99.90;;;;;;5092754;28;20203;-61
2021/12/27 02:17:43;;;;;;;17.45;9.13;;;5.80;99.90;;;;;;5093020;28;20639;-61
2021/12/27 02:20:15;;;;;;;16.55;9.75;;;5.80;99.90;;;;;;5092460;28;20181;-61
2021/12/27 02:22:40;;;;;;;17.02;9.32;;;5.80;99.90;;;;;;5091887;28;20267;-60
2021/12/27 02:25:07;;;;;;;14.80;8.98;;;5.80;99.90;;;;;;5092215;28;20742;-60
2021/12/27 02:27:33;;;;;;;16.35;9.35;;;5.80;99.90;;;;;;5092552;28;20168;-61
2021/12/27 02:29:59;;;;;;;17.63;10.00;;;5.80;99.90;;;;;;5092656;28;20257;-60
2021/12/27 02:32:25;;;;;;;17.00;9.65;;;5.80;99.90;;;;;;5092879;28;20230;-61
2021/12/27 02:34:51;;;;;;;15.75;9.45;;;5.80;99.90;;;;;;5092346;28;20643;-61
2021/12/27 02:37:16;;;;;;;16.38;9.20;;;5.80;99.90;;;;;;5092841;28;20184;-61
2021/12/27 02:39:45;;;;;;;16.35;8.95;;;5.80;99.90;;;;;;5093158;28;20178;-60
2021/12/27 02:42:16;;;;;;;15.75;9.40;;;5.80;99.90;;;;;;5092532;28;20227;-61
2021/12/27 02:44:41;;;;;;;14.88;8.32;;;5.80;99.90;;;;;;5086261;28;20195;-61
2021/12/27 02:47:07;;;;;;;15.32;9.20;;;5.80;99.90;;;;;;5092813;28;20564;-61
2021/12/27 02:49:32;;;;;;;15.02;8.93;;;5.80;99.90;;;;;;5092659;28;20184;-61
2021/12/27 02:51:58;;;;;;;17.00;9.52;;;5.80;99.90;;;;;;5091416;28;20182;-62
2021/12/27 02:54:23;;;;;;;16.95;9.45;;;5.80;99.90;;;;;;5092280;28;20176;-62
2021/12/27 02:56:49;;;;;;;17.30;9.32;;;5.80;99.90;;;;;;5092587;28;20224;-62
2021/12/27 02:59:14;;;;;;;16.38;9.30;;;5.80;99.90;;;;;;5091961;28;20211;-61
2021/12/27 03:01:40;;;;;;;16.83;9.80;;;5.80;99.90;;;;;;5092120;28;20216;-62
2021/12/27 03:04:05;;;;;;;19.80;9.65;;;5.80;99.90;;;;;;5092676;28;20165;-62
2021/12/27 03:06:31;;;;;;;17.85;9.68;;;5.70;99.90;;;;;;5091971;28;20180;-62
2021/12/27 03:08:57;;;;;;;20.95;10.43;;;5.70;99.90;;;;;;5092193;28;20202;-62
2021/12/27 03:11:22;;;;;;;19.00;9.68;;;5.70;99.90;;;;;;5092368;28;20179;-62
2021/12/27 03:13:53;;;;;;;19.67;10.15;;;5.70;99.90;;;;;;5091517;28;20225;-60
2021/12/27 03:16:20;;;;;;;21.40;10.70;;;5.70;99.90;;;;;;5092385;28;20187;-59
2021/12/27 03:18:49;;;;;;;19.17;10.30;;;5.70;99.90;;;;;;5092518;28;20212;-59
2021/12/27 03:21:15;;;;;;;15.75;9.60;;;5.60;99.90;;;;;;5092109;28;20227;-60
2021/12/27 03:23:42;;;;;;;21.88;11.00;;;5.60;99.90;;;;;;5092227;28;20236;-60
2021/12/27 03:26:08;;;;;;;15.80;9.38;;;5.60;99.90;;;;;;5091957;28;20180;-60
2021/12/27 03:28:34;;;;;;;17.38;9.63;;;5.60;99.90;;;;;;5091698;28;20506;-60
2021/12/27 03:31:00;;;;;;;17.30;10.00;;;5.60;99.90;;;;;;5091116;28;20184;-60
2021/12/27 03:33:27;;;;;;;17.33;9.52;;;5.60;99.90;;;;;;5091840;28;20669;-60
2021/12/27 03:36:05;;;;;;;14.90;9.45;;;5.60;99.90;;;;;;5092428;28;20554;-60
2021/12/27 03:38:37;;;;;;;18.83;9.32;;;5.60;99.90;;;;;;5091680;28;20186;-61
2021/12/27 03:41:05;;;;;;;16.20;9.77;;;5.60;99.90;;;;;;5091791;28;20662;-61
2021/12/27 03:43:30;;;;;;;16.85;9.32;;;5.60;99.90;;;;;;5091761;28;20184;-60
2021/12/27 03:45:56;;;;;;;16.33;9.30;;;5.60;99.90;;;;;;5092206;28;20520;-60
2021/12/27 03:48:22;;;;;;;14.73;8.68;;;5.60;99.90;;;;;;5091715;28;20176;-60
2021/12/27 03:50:47;;;;;;;17.40;9.63;;;5.60;99.90;;;;;;5091854;28;20236;-61
2021/12/27 03:53:13;;;;;;;16.40;9.70;;;5.60;99.90;;;;;;5091868;28;20204;-61
2021/12/27 03:55:39;;;;;;;16.77;9.07;;;5.60;99.90;;;;;;5091938;28;20172;-61
2021/12/27 03:58:30;;;;;;;14.27;8.65;;;5.60;99.90;;;;;;5091182;28;20235;-60
2021/12/27 04:03:20;;;;;;;14.02;8.15;;;5.60;99.90;;;;;;5091598;28;20552;-61
2021/12/27 04:05:47;;;;;;;15.10;8.77;;;5.60;99.90;;;;;;5091767;28;20172;-60
2021/12/27 04:08:13;;;;;;;17.13;10.15;;;5.60;99.90;;;;;;5091317;28;20187;-60
2021/12/27 04:10:41;;;;;;;18.58;10.40;;;5.60;99.90;;;;;;5092108;28;20172;-61
2021/12/27 04:13:09;;;;;;;17.50;9.57;;;5.60;99.90;;;;;;5091179;28;20182;-61
2021/12/27 04:15:35;;;;;;;14.57;9.32;;;5.50;99.90;;;;;;5076209;28;20639;-61
2021/12/27 04:18:02;;;;;;;16.40;8.98;;;5.50;99.90;;;;;;5091545;28;20281;-60
2021/12/27 04:20:28;;;;;;;14.93;9.10;;;5.50;99.90;;;;;;5091217;28;20176;-60
2021/12/27 04:22:53;;;;;;;14.52;9.10;;;5.50;99.90;;;;;;5091552;28;20521;-60
2021/12/27 04:25:20;;;;;;;14.45;9.40;;;5.50;99.90;;;;;;5091543;28;20172;-60
2021/12/27 04:27:47;;;;;;;15.13;9.13;;;5.50;99.90;;;;;;5091693;28;20184;-61
2021/12/27 04:30:14;;;;;;;13.82;8.88;;;5.50;99.90;;;;;;5091144;28;20226;-61
2021/12/27 04:32:40;;;;;;;15.00;9.45;;;5.50;99.90;;;;;;5091341;28;20670;-60
2021/12/27 04:35:07;;;;;;;16.45;9.15;;;5.50;99.90;;;;;;5090226;28;20195;-60
2021/12/27 04:37:33;;;;;;;13.77;9.02;;;5.60;99.90;;;;;;5091665;28;20184;-60
2021/12/27 04:39:59;;;;;;;12.60;8.40;;;5.60;99.90;;;;;;5091290;28;20230;-60
2021/12/27 04:42:26;;;;;;;13.32;9.32;;;5.60;99.90;;;;;;5092030;28;20268;-60
2021/12/27 04:44:51;;;;;;;14.18;9.30;;;5.60;99.90;;;;;;5094863;28;20734;-60
2021/12/27 04:47:18;;;;;;;16.08;9.77;;;5.60;99.90;;;;;;5093490;28;20214;-60
2021/12/27 04:49:44;;;;;;;13.32;8.65;;;5.60;99.90;;;;;;5094905;28;20199;-60
2021/12/27 04:52:10;;;;;;;14.80;8.95;;;5.60;99.90;;;;;;5095029;28;20172;-60
2021/12/27 04:54:37;;;;;;;15.65;9.25;;;5.60;99.90;;;;;;5094259;28;20191;-60
2021/12/27 04:57:03;;;;;;;16.73;10.20;;;5.60;99.90;;;;;;5094432;28;20242;-60
2021/12/27 04:59:29;;;;;;;15.60;9.93;;;5.70;99.90;;;;;;5094025;28;20188;-60
2021/12/27 05:01:55;;;;;;;15.20;9.93;;;5.70;99.90;;;;;;5093582;28;20527;-60
2021/12/27 05:04:20;;;;;;;19.17;10.82;;;5.70;99.90;;;;;;5094404;28;20184;-60
2021/12/27 05:06:46;;;;;;;22.23;12.68;;;5.70;99.90;;;;;;5094503;28;20228;-60
2021/12/27 05:09:11;;;;;;;20.27;11.55;;;5.70;99.90;;;;;;5094605;28;20650;-60
2021/12/27 05:11:37;;;;;;;19.17;11.07;;;5.70;99.90;;;;;;5094709;28;20194;-60
2021/12/27 05:14:03;;;;;;;23.30;11.38;;;5.70;99.90;;;;;;5092695;28;20186;-60
2021/12/27 05:16:29;;;;;;;18.73;10.82;;;5.70;99.90;;;;;;5094173;28;20647;-60
2021/12/27 05:18:54;;;;;;;24.02;12.70;;;5.70;99.90;;;;;;5093564;28;20183;-60
2021/12/27 05:21:20;;;;;;;30.25;15.35;;;5.70;99.90;;;;;;5092913;28;20682;-60
2021/12/27 05:23:45;;;;;;;46.63;19.20;;;5.70;99.90;;;;;;5092943;28;20191;-60
2021/12/27 05:26:11;;;;;;;44.78;19.48;;;5.70;99.90;;;;;;5094494;28;20206;-60
2021/12/27 05:28:36;;;;;;;37.17;17.20;;;5.70;99.90;;;;;;5093787;28;20541;-60
2021/12/27 05:31:02;;;;;;;31.67;15.82;;;5.80;99.90;;;;;;5094261;28;20184;-61
2021/12/27 05:33:27;;;;;;;22.92;12.30;;;5.70;99.90;;;;;;5092635;28;20643;-61
2021/12/27 05:35:53;;;;;;;19.33;10.35;;;5.70;99.90;;;;;;5094505;28;20168;-61
2021/12/27 05:38:18;;;;;;;17.95;10.45;;;5.70;99.90;;;;;;5093830;28;20683;-61
2021/12/27 05:40:44;;;;;;;19.05;10.32;;;5.70;99.90;;;;;;5094080;28;20208;-60
2021/12/27 05:43:10;;;;;;;16.98;9.43;;;5.70;99.90;;;;;;5092582;28;20635;-60
2021/12/27 05:45:37;;;;;;;16.85;9.50;;;5.70;99.90;;;;;;5093829;28;20560;-60
2021/12/27 05:48:04;;;;;;;14.15;8.43;;;5.70;99.90;;;;;;5094063;28;20183;-60
2021/12/27 05:50:29;;;;;;;13.35;8.18;;;5.70;99.90;;;;;;5093359;28;20275;-60
2021/12/27 05:52:55;;;;;;;13.57;8.50;;;5.70;99.90;;;;;;5093440;28;20294;-60
2021/12/27 05:55:21;;;;;;;15.57;8.50;;;5.70;99.90;;;;;;5092814;28;20540;-60
2021/12/27 05:57:47;;;;;;;11.75;7.88;;;5.70;99.90;;;;;;5092790;28;20574;-60
2021/12/27 06:00:14;;;;;;;13.57;8.50;;;5.70;99.90;;;;;;5093302;28;20188;-60
2021/12/27 06:02:41;;;;;;;13.93;8.63;;;5.60;99.90;;;;;;5093578;28;20211;-60
2021/12/27 06:05:06;;;;;;;13.55;8.07;;;5.70;99.90;;;;;;5093603;28;20187;-60
2021/12/27 06:07:32;;;;;;;11.25;7.97;;;5.60;99.90;;;;;;5093473;28;20187;-60
2021/12/27 06:09:58;;;;;;;14.27;8.80;;;5.60;99.90;;;;;;5093317;28;20647;-60
2021/12/27 06:12:24;;;;;;;14.63;7.88;;;5.50;99.90;;;;;;5091671;28;20176;-60
2021/12/27 06:14:49;;;;;;;14.10;8.45;;;5.50;99.90;;;;;;5091470;28;20180;-60
2021/12/27 06:17:15;;;;;;;14.65;9.30;;;5.40;99.90;;;;;;5092624;28;20168;-60
2021/12/27 06:19:41;;;;;;;13.15;8.93;;;5.50;99.90;;;;;;5092973;28;20194;-60
2021/12/27 06:22:06;;;;;;;13.70;8.63;;;5.50;99.90;;;;;;5092984;28;20548;-60
2021/12/27 06:24:32;;;;;;;14.55;8.80;;;5.50;99.90;;;;;;5093237;28;20183;-60
2021/12/27 06:26:58;;;;;;;13.20;8.85;;;5.50;99.90;;;;;;5093445;28;20218;-60
2021/12/27 06:29:23;;;;;;;14.27;8.73;;;5.50;99.90;;;;;;5092372;28;20266;-60
2021/12/27 06:31:49;;;;;;;14.70;8.88;;;5.50;99.90;;;;;;5092960;28;20650;-60
2021/12/27 06:34:14;;;;;;;14.25;8.55;;;5.50;99.90;;;;;;5091676;28;20230;-60
2021/12/27 06:36:40;;;;;;;14.45;8.55;;;5.50;99.90;;;;;;5092761;28;20651;-61
2021/12/27 06:39:06;;;;;;;14.57;9.02;;;5.50;99.90;;;;;;5092894;28;20226;-61
2021/12/27 06:41:32;;;;;;;14.50;9.20;;;5.50;99.90;;;;;;5091605;28;20556;-61
2021/12/27 06:43:57;;;;;;;15.85;10.10;;;5.50;99.90;;;;;;5091916;28;20253;-60
2021/12/27 06:46:23;;;;;;;14.80;9.73;;;5.50;99.90;;;;;;5092942;28;20255;-60
2021/12/27 06:48:49;;;;;;;14.00;8.32;;;5.40;99.90;;;;;;5093957;28;20179;-60
2021/12/27 06:51:15;;;;;;;14.32;8.63;;;5.40;99.90;;;;;;5099279;28;20206;-60
2021/12/27 06:53:40;;;;;;;14.68;8.25;;;5.40;99.90;;;;;;5092692;28;20188;-59
2021/12/27 06:56:06;;;;;;;14.20;9.15;;;5.40;99.90;;;;;;5078592;28;20187;-60
2021/12/27 06:58:32;;;;;;;17.67;10.80;;;5.30;99.90;;;;;;5072766;28;20529;-60
2021/12/27 07:00:58;;;;;;;25.33;14.73;;;5.30;99.90;;;;;;5086160;28;20211;-59
2021/12/27 07:03:23;;;;;;;27.58;15.27;;;5.30;99.90;;;;;;5090362;28;20640;-60
2021/12/27 07:05:49;;;;;;;26.95;14.75;;;5.20;99.90;;;;;;5090979;28;20229;-60
2021/12/27 07:08:16;;;;;;;21.55;13.65;;;5.20;99.90;;;;;;5092338;28;20210;-60
2021/12/27 07:10:42;;;;;;;17.70;10.70;;;5.20;99.90;;;;;;5092647;28;20207;-60
2021/12/27 07:13:09;;;;;;;19.98;10.63;;;5.20;99.90;;;;;;5092338;28;20201;-60
2021/12/27 07:15:41;;;;;;;12.63;8.20;;;5.10;99.90;;;;;;5092443;28;20179;-60
2021/12/27 07:18:16;;;;;;;11.63;7.43;;;5.10;99.90;;;;;;5092630;28;20228;-60
2021/12/27 07:20:42;;;;;;;14.98;8.68;;;5.20;99.90;;;;;;5072238;28;20250;-60
2021/12/27 07:23:08;;;;;;;11.63;6.88;;;5.20;99.90;;;;;;5092434;28;20571;-60
2021/12/27 07:25:35;;;;;;;11.07;7.13;;;5.20;99.90;;;;;;5093371;28;20180;-60
2021/12/27 07:28:00;;;;;;;13.38;7.72;;;5.20;99.90;;;;;;5092206;28;20258;-59
2021/12/27 07:30:28;;;;;;;13.20;8.57;;;5.20;99.90;;;;;;5090978;28;20263;-59
2021/12/27 07:32:54;;;;;;;14.63;9.30;;;5.30;99.90;;;;;;5092439;28;20168;-60
2021/12/27 07:35:20;;;;;;;17.02;10.25;;;5.20;99.90;;;;;;5091810;28;20670;-59
2021/12/27 07:37:46;;;;;;;17.83;10.13;;;5.30;99.90;;;;;;5091766;28;20188;-58
2021/12/27 07:40:12;;;;;;;15.90;10.68;;;5.20;99.90;;;;;;5091794;28;20177;-58
2021/12/27 07:42:37;;;;;;;21.13;10.98;;;5.20;99.90;;;;;;5091920;28;20203;-58
2021/12/27 07:45:04;;;;;;;17.35;10.40;;;5.20;99.90;;;;;;5091576;28;20271;-58
2021/12/27 07:47:29;;;;;;;19.25;11.13;;;5.20;99.90;;;;;;5091837;28;20266;-58
2021/12/27 07:49:55;;;;;;;26.90;15.55;;;5.20;99.90;;;;;;5092072;28;20256;-57
2021/12/27 07:52:20;;;;;;;26.23;15.40;;;5.30;99.90;;;;;;5091173;28;20274;-59
2021/12/27 07:54:46;;;;;;;36.30;19.50;;;5.30;99.90;;;;;;5091420;28;20219;-58
2021/12/27 07:57:12;;;;;;;32.33;18.48;;;5.40;99.90;;;;;;5090813;28;20315;-59
2021/12/27 07:59:38;;;;;;;33.70;19.48;;;5.50;99.90;;;;;;5092188;28;20247;-59
2021/12/27 08:02:04;;;;;;;39.53;22.38;;;5.50;99.90;;;;;;5091447;28;20222;-59
2021/12/27 08:04:30;;;;;;;37.03;19.48;;;5.60;99.90;;;;;;5091964;28;20184;-59
2021/12/27 08:06:56;;;;;;;32.38;19.23;;;5.70;99.90;;;;;;5091540;28;20176;-59
2021/12/27 08:09:25;;;;;;;34.65;19.40;;;5.70;99.90;;;;;;5091730;28;20223;-59
2021/12/27 08:11:50;;;;;;;29.27;17.83;;;5.70;99.90;;;;;;5091760;28;20184;-59
2021/12/27 08:14:17;;;;;;;29.38;17.40;;;5.70;99.90;;;;;;5091566;28;20654;-59
2021/12/27 08:16:42;;;;;;;26.65;17.10;;;5.80;99.90;;;;;;5091665;28;20179;-59
2021/12/27 08:19:08;;;;;;;29.00;16.77;;;5.80;99.90;;;;;;5095587;28;20735;-60
2021/12/27 08:21:33;;;;;;;29.95;16.02;;;5.90;99.90;;;;;;5094693;28;20594;-62
2021/12/27 08:23:59;;;;;;;28.15;17.48;;;6.00;99.90;;;;;;5094104;28;20275;-59
2021/12/27 08:26:24;;;;;;;30.15;20.48;;;6.10;99.90;;;;;;5095003;28;20319;-59
2021/12/27 08:28:52;;;;;;;28.85;17.40;;;6.20;99.90;;;;;;5095196;28;20184;-59
2021/12/27 08:31:18;;;;;;;27.38;13.60;;;6.20;99.90;;;;;;5095343;28;20176;-59
2021/12/27 08:33:43;;;;;;;21.17;13.10;;;6.30;99.90;;;;;;5094949;28;20527;-59
2021/12/27 08:36:09;;;;;;;22.77;13.75;;;6.40;99.90;;;;;;5094995;28;20191;-60
2021/12/27 08:38:34;;;;;;;29.80;16.27;;;6.50;99.90;;;;;;5095303;28;20187;-59
2021/12/27 08:41:00;;;;;;;28.63;17.50;;;6.60;99.90;;;;;;5094291;28;20680;-59
2021/12/27 08:43:26;;;;;;;26.80;17.30;;;6.70;99.90;;;;;;5094968;28;20180;-59
2021/12/27 08:45:52;;;;;;;36.17;19.95;;;6.70;99.90;;;;;;5095726;28;20182;-59
2021/12/27 08:48:18;;;;;;;32.38;19.60;;;6.80;99.90;;;;;;5094735;28;20187;-59
2021/12/27 08:50:44;;;;;;;34.13;18.60;;;6.80;99.90;;;;;;5084020;28;20223;-59
2021/12/27 08:53:09;;;;;;;30.58;18.83;;;6.90;99.90;;;;;;5095210;28;20175;-59
2021/12/27 08:55:37;;;;;;;31.73;18.60;;;6.90;99.90;;;;;;5094944;28;20264;-59
2021/12/27 08:58:04;;;;;;;30.25;18.48;;;7.10;99.90;;;;;;5094833;28;20242;-59
2021/12/27 09:00:29;;;;;;;24.88;17.00;;;7.10;99.90;;;;;;5094667;28;20183;-58
2021/12/27 09:02:55;;;;;;;23.30;16.02;;;7.20;99.90;;;;;;5094779;28;20180;-58
2021/12/27 09:05:21;;;;;;;25.50;15.70;;;7.30;99.90;;;;;;5094491;28;20180;-59
2021/12/27 09:07:47;;;;;;;24.80;15.52;;;7.40;99.90;;;;;;5095027;28;20179;-59
2021/12/27 09:10:13;;;;;;;17.85;12.20;;;7.60;99.90;;;;;;5094835;28;20648;-59
2021/12/27 09:12:40;;;;;;;15.15;9.85;;;7.70;99.90;;;;;;5094690;28;20659;-60
2021/12/27 09:15:06;;;;;;;12.80;8.27;;;7.90;99.90;;;;;;5094419;28;20181;-60
2021/12/27 09:17:32;;;;;;;11.32;6.75;;;8.00;99.90;;;;;;5094882;28;20551;-60
2021/12/27 09:19:57;;;;;;;6.68;5.00;;;8.20;99.90;;;;;;5094226;28;20176;-59
2021/12/27 09:22:23;;;;;;;8.40;4.70;;;8.30;99.90;;;;;;5094414;28;20216;-59
2021/12/27 09:24:50;;;;;;;6.03;3.65;;;8.50;99.90;;;;;;5094404;28;20318;-59
2021/12/27 09:27:16;;;;;;;5.13;3.70;;;8.60;99.90;;;;;;5094230;28;20187;-59
2021/12/27 09:29:43;;;;;;;5.55;3.50;;;8.70;99.90;;;;;;5094072;28;20267;-59
2021/12/27 09:32:09;;;;;;;5.38;3.47;;;8.80;99.90;;;;;;5094223;28;20249;-60
2021/12/27 09:34:35;;;;;;;5.18;3.60;;;8.90;99.90;;;;;;5093805;28;20278;-59
2021/12/27 09:37:01;;;;;;;5.05;3.50;;;8.90;99.90;;;;;;5094255;28;20245;-60
2021/12/27 09:39:27;;;;;;;4.90;3.40;;;8.90;99.90;;;;;;5093870;28;20180;-59
2021/12/27 09:41:52;;;;;;;7.03;3.83;;;8.90;99.90;;;;;;5093171;28;20638;-61
2021/12/27 09:44:18;;;;;;;7.20;3.40;;;9.00;99.90;;;;;;5093225;28;20175;-60
2021/12/27 09:46:44;;;;;;;5.70;3.35;;;9.00;99.90;;;;;;5094221;28;20712;-59
2021/12/27 09:49:14;;;;;;;3.40;3.05;;;9.10;99.90;;;;;;5093637;28;20635;-59
2021/12/27 09:51:40;;;;;;;4.70;3.30;;;9.00;99.90;;;;;;5094350;28;20200;-59
2021/12/27 09:54:07;;;;;;;3.58;3.20;;;9.10;99.90;;;;;;5093477;28;20179;-59
2021/12/27 09:56:33;;;;;;;4.93;3.47;;;9.20;99.90;;;;;;5093884;28;20220;-59
2021/12/27 09:58:59;;;;;;;5.10;3.50;;;9.20;99.90;;;;;;5093747;28;20551;-60
2021/12/27 10:01:25;;;;;;;4.78;3.60;;;9.30;99.90;;;;;;5093360;28;20278;-61
2021/12/27 10:03:50;;;;;;;4.78;3.80;;;9.30;99.90;;;;;;5093602;28;20172;-58
2021/12/27 10:06:17;;;;;;;6.05;3.63;;;9.40;99.90;;;;;;5093473;28;21390;-60
2021/12/27 10:08:45;;;;;;;4.68;3.25;;;9.50;99.90;;;;;;5092766;28;20184;-59
2021/12/27 10:11:40;;;;;;;3.40;3.03;;;9.60;99.90;;;;;;5093636;28;20175;-59
2021/12/27 10:14:07;;;;;;;5.45;3.25;;;9.60;99.90;;;;;;5092788;28;20643;-61
2021/12/27 10:16:37;;;;;;;6.18;3.60;;;9.60;99.90;;;;;;5093178;28;20192;-66
2021/12/27 10:19:06;;;;;;;6.55;4.07;;;9.60;99.90;;;;;;5093462;28;20208;-59
2021/12/27 10:21:33;;;;;;;6.38;3.35;;;9.70;99.90;;;;;;5093169;28;20278;-59
2021/12/27 10:24:02;;;;;;;3.70;3.30;;;9.70;99.90;;;;;;5093416;28;20176;-58
2021/12/27 10:26:30;;;;;;;5.57;3.45;;;9.80;99.90;;;;;;5092785;28;20275;-58
2021/12/27 10:29:18;;;;;;;4.18;3.63;;;9.80;99.90;;;;;;5093142;28;20206;-59
2021/12/27 10:31:55;;;;;;;4.13;3.17;;;9.90;99.90;;;;;;5076054;28;20203;-58
2021/12/27 10:34:23;;;;;;;33.70;17.73;;;9.90;99.90;;;;;;5093075;28;20175;-61
2021/12/27 10:37:19;;;;;;;9.15;5.88;;;10.30;99.90;;;;;;5092773;28;20177;-60
2021/12/27 10:40:02;;;;;;;3.08;2.53;;;10.70;99.90;;;;;;5092554;28;20180;-58
2021/12/27 10:42:40;;;;;;;2.85;2.38;;;10.90;99.90;;;;;;5092518;28;20674;-60
2021/12/27 10:45:10;;;;;;;3.40;2.65;;;10.80;99.90;;;;;;5092936;28;20183;-59
2021/12/27 10:47:46;;;;;;;6.20;3.03;;;10.80;99.90;;;;;;5092478;28;20682;-59
2021/12/27 10:50:23;;;;;;;4.57;2.85;;;10.80;99.90;;;;;;5092902;28;20228;-60
2021/12/27 10:53:09;;;;;;;5.57;3.00;;;10.80;99.90;;;;;;5091467;28;20167;-61
2021/12/27 10:55:43;;;;;;;4.40;3.42;;;10.80;99.90;;;;;;5091835;28;20231;-59
2021/12/27 10:58:18;;;;;;;4.07;2.70;;;10.80;99.90;;;;;;5092630;28;20302;-59
2021/12/27 11:00:45;;;;;;;3.50;2.90;;;10.90;99.90;;;;;;5092270;28;20262;-58
2021/12/27 11:03:26;;;;;;;3.28;2.60;;;11.00;99.90;;;;;;5091904;28;20180;-59
2021/12/27 11:05:52;;;;;;;3.00;2.40;;;11.00;99.90;;;;;;5092849;28;20263;-60
2021/12/27 11:08:18;;;;;;;4.38;2.40;;;11.00;99.90;;;;;;5096338;28;20232;-59
2021/12/27 11:10:43;;;;;;;3.35;2.40;;;11.10;99.90;;;;;;5102681;28;20187;-59
2021/12/27 11:13:09;;;;;;;2.80;2.28;;;11.10;99.90;;;;;;5113020;28;20175;-60
2021/12/27 11:15:37;;;;;;;2.63;2.10;;;11.10;99.90;;;;;;5112988;28;20642;-60
2021/12/27 11:18:04;;;;;;;6.10;2.90;;;11.10;99.90;;;;;;5113090;28;20262;-60
2021/12/27 11:20:31;;;;;;;3.78;2.70;;;10.90;99.90;;;;;;5106775;28;20184;-59
2021/12/27 11:22:59;;;;;;;3.95;2.88;;;10.70;99.90;;;;;;5092408;28;20686;-62
2021/12/27 11:25:29;;;;;;;6.88;3.28;;;10.50;99.90;;;;;;5091010;28;20192;-59
2021/12/27 11:27:55;;;;;;;4.72;3.55;;;10.30;99.90;;;;;;5077360;28;20176;-58
2021/12/27 11:30:27;;;;;;;4.88;3.33;;;10.30;99.90;;;;;;5091523;28;20278;-59
2021/12/27 11:33:05;;;;;;;4.68;3.25;;;10.20;99.90;;;;;;5092323;28;20180;-59
2021/12/27 11:36:00;;;;;;;5.95;3.17;;;10.20;99.90;;;;;;5091848;28;20179;-59
2021/12/27 11:38:30;;;;;;;4.53;3.28;;;10.30;99.90;;;;;;5090349;28;20183;-59
2021/12/27 11:40:56;;;;;;;4.22;2.67;;;10.30;99.90;;;;;;5091719;28;20208;-59
2021/12/27 11:43:21;;;;;;;4.90;3.17;;;10.20;99.90;;;;;;5091462;28;20183;-58
2021/12/27 11:45:47;;;;;;;5.13;3.40;;;10.10;99.90;;;;;;5090325;28;20705;-60
2021/12/27 11:48:18;;;;;;;5.07;3.40;;;10.10;99.90;;;;;;5090522;28;20180;-60
2021/12/27 11:50:58;;;;;;;118.82;52.28;;;10.10;99.90;;;;;;5090983;28;20184;-59
2021/12/27 11:53:29;;;;;;;6.93;4.47;;;10.50;99.90;;;;;;5093614;28;20179;-59
2021/12/27 11:55:54;;;;;;;6.45;3.80;;;10.90;99.90;;;;;;5096331;28;20164;-59
2021/12/27 11:58:35;;;;;;;3.85;2.97;;;11.00;99.90;;;;;;5095516;28;20219;-59
2021/12/27 12:01:22;;;;;;;5.03;3.50;;;10.80;99.90;;;;;;5096189;28;20306;-59
2021/12/27 12:03:49;;;;;;;6.88;3.83;;;10.80;99.90;;;;;;5095846;28;20187;-59
2021/12/27 12:06:35;;;;;;;5.15;3.70;;;10.70;99.90;;;;;;5095107;28;20549;-59
2021/12/27 12:09:01;;;;;;;17.60;9.98;;;10.80;99.90;;;;;;5099742;28;20222;-59
2021/12/27 12:11:33;;;;;;;106.38;48.58;;;11.00;99.90;;;;;;5095946;28;20245;-59
2021/12/27 12:14:30;;;;;;;60.80;31.85;;;11.30;99.90;;;;;;5096083;28;20550;-59
2021/12/27 12:16:57;;;;;;;41.47;22.85;;;11.80;99.90;;;;;;5096151;28;20172;-59
2021/12/27 12:19:45;;;;;;;24.33;12.13;;;12.30;99.90;;;;;;5095572;28;20689;-58
2021/12/27 12:22:37;;;;;;;7.47;4.60;;;12.80;99.90;;;;;;5095685;28;20220;-59
2021/12/27 12:25:23;;;;;;;5.38;3.50;;;12.90;99.90;;;;;;5076226;28;20263;-58
2021/12/27 12:27:58;;;;;;;4.53;3.30;;;12.70;99.90;;;;;;5077791;28;20177;-58
2021/12/27 12:30:28;;;;;;;4.88;3.25;;;12.30;99.90;;;;;;5095448;28;20186;-58
2021/12/27 12:33:04;;;;;;;7.88;4.25;;;12.00;99.90;;;;;;5095111;28;20188;-59
2021/12/27 12:35:37;;;;;;;7.65;4.05;;;11.70;99.90;;;;;;5087343;28;20186;-58
2021/12/27 12:38:28;;;;;;;28.77;10.90;;;11.40;99.90;;;;;;5094655;28;20325;-58
2021/12/27 12:41:06;;;;;;;9.02;5.68;;;11.20;99.90;;;;;;5094962;28;20172;-59
2021/12/27 12:43:36;;;;;;;9.23;5.50;;;11.10;99.90;;;;;;5094502;28;20274;-58
2021/12/27 12:46:23;;;;;;;6.75;4.07;;;11.10;99.90;;;;;;5094511;28;20677;-58
2021/12/27 12:49:11;;;;;;;7.45;3.45;;;11.00;99.90;;;;;;5094859;28;20176;-59
2021/12/27 12:51:52;;;;;;;14.45;7.18;;;10.90;99.90;;;;;;5096903;28;20188;-60